sensor_id;sensor_type;location;lat;lon;timestamp;P1;durP1;ratioP1;P2;durP2;ratioP2
45344;SDS011;31078;48.304;11.896;2023-02-15T00:02:00;31.38;;;12.80;;
45344;SDS011;31078;48.304;11.896;2023-02-15T00:04:27;23.00;;;11.65;;
45344;SDS011;31078;48.304;11.896;2023-02-15T00:07:11;28.23;;;13.95;;
45344;SDS011;31078;48.304;11.896;2023-02-15T00:09:38;31.67;;;13.77;;
45344;SDS011;31078;48.304;11.896;2023-02-15T00:12:05;34.60;;;14.82;;
45344;SDS011;31078;48.304;11.896;2023-02-15T00:14:31;39.80;;;14.73;;
45344;SDS011;31078;48.304;11.896;2023-02-15T00:16:59;30.95;;;14.55;;
45344;SDS011;31078;48.304;11.896;2023-02-15T00:19:26;27.77;;;13.95;;
45344;SDS011;31078;48.304;11.896;2023-02-15T00:21:52;47.38;;;16.17;;
45344;SDS011;31078;48.304;11.896;2023-02-15T00:24:19;39.83;;;16.33;;
45344;SDS011;31078;48.304;11.896;2023-02-15T00:26:46;31.38;;;14.50;;
45344;SDS011;31078;48.304;11.896;2023-02-15T00:29:14;34.42;;;14.48;;
45344;SDS011;31078;48.304;11.896;2023-02-15T00:31:43;53.08;;;16.35;;
45344;SDS011;31078;48.304;11.896;2023-02-15T00:34:10;28.00;;;14.27;;
45344;SDS011;31078;48.304;11.896;2023-02-15T00:36:38;38.53;;;14.15;;
45344;SDS011;31078;48.304;11.896;2023-02-15T00:39:05;28.65;;;14.52;;
45344;SDS011;31078;48.304;11.896;2023-02-15T00:41:32;49.10;;;15.45;;
45344;SDS011;31078;48.304;11.896;2023-02-15T00:43:59;35.22;;;16.45;;
45344;SDS011;31078;48.304;11.896;2023-02-15T00:46:26;48.92;;;15.98;;
45344;SDS011;31078;48.304;11.896;2023-02-15T00:48:53;37.22;;;15.90;;
45344;SDS011;31078;48.304;11.896;2023-02-15T00:51:20;29.42;;;15.55;;
45344;SDS011;31078;48.304;11.896;2023-02-15T00:53:46;54.15;;;17.08;;
45344;SDS011;31078;48.304;11.896;2023-02-15T00:56:13;30.63;;;15.70;;
45344;SDS011;31078;48.304;11.896;2023-02-15T00:58:40;64.88;;;17.00;;
45344;SDS011;31078;48.304;11.896;2023-02-15T01:01:07;51.20;;;17.23;;
45344;SDS011;31078;48.304;11.896;2023-02-15T01:03:35;29.75;;;15.45;;
45344;SDS011;31078;48.304;11.896;2023-02-15T01:06:04;37.65;;;14.50;;
45344;SDS011;31078;48.304;11.896;2023-02-15T01:08:30;35.65;;;15.80;;
45344;SDS011;31078;48.304;11.896;2023-02-15T01:10:57;30.13;;;14.70;;
45344;SDS011;31078;48.304;11.896;2023-02-15T01:13:30;34.42;;;15.32;;
45344;SDS011;31078;48.304;11.896;2023-02-15T01:15:56;35.97;;;14.82;;
45344;SDS011;31078;48.304;11.896;2023-02-15T01:18:23;26.63;;;13.27;;
45344;SDS011;31078;48.304;11.896;2023-02-15T01:20:49;29.60;;;14.35;;
45344;SDS011;31078;48.304;11.896;2023-02-15T01:23:17;28.48;;;13.45;;
45344;SDS011;31078;48.304;11.896;2023-02-15T01:25:43;25.73;;;13.75;;
45344;SDS011;31078;48.304;11.896;2023-02-15T01:28:10;29.50;;;14.27;;
45344;SDS011;31078;48.304;11.896;2023-02-15T01:30:37;27.23;;;14.02;;
45344;SDS011;31078;48.304;11.896;2023-02-15T01:33:03;27.60;;;13.93;;
45344;SDS011;31078;48.304;11.896;2023-02-15T01:35:30;24.77;;;13.73;;
45344;SDS011;31078;48.304;11.896;2023-02-15T01:37:56;35.28;;;14.15;;
45344;SDS011;31078;48.304;11.896;2023-02-15T01:40:24;28.55;;;13.60;;
45344;SDS011;31078;48.304;11.896;2023-02-15T01:42:51;25.23;;;13.35;;
45344;SDS011;31078;48.304;11.896;2023-02-15T01:45:19;28.23;;;14.15;;
45344;SDS011;31078;48.304;11.896;2023-02-15T01:47:51;45.17;;;14.88;;
45344;SDS011;31078;48.304;11.896;2023-02-15T01:50:21;32.20;;;14.82;;
45344;SDS011;31078;48.304;11.896;2023-02-15T01:52:52;32.42;;;13.88;;
45344;SDS011;31078;48.304;11.896;2023-02-15T01:55:22;27.35;;;14.70;;
45344;SDS011;31078;48.304;11.896;2023-02-15T01:57:52;40.88;;;14.32;;
45344;SDS011;31078;48.304;11.896;2023-02-15T02:00:19;28.70;;;14.07;;
45344;SDS011;31078;48.304;11.896;2023-02-15T02:02:47;29.67;;;14.13;;
45344;SDS011;31078;48.304;11.896;2023-02-15T02:05:16;37.75;;;14.75;;
45344;SDS011;31078;48.304;11.896;2023-02-15T02:07:43;72.97;;;15.60;;
45344;SDS011;31078;48.304;11.896;2023-02-15T02:10:13;31.83;;;14.40;;
45344;SDS011;31078;48.304;11.896;2023-02-15T02:12:42;29.05;;;14.48;;
45344;SDS011;31078;48.304;11.896;2023-02-15T02:15:11;36.63;;;15.48;;
45344;SDS011;31078;48.304;11.896;2023-02-15T02:17:41;28.48;;;14.07;;
45344;SDS011;31078;48.304;11.896;2023-02-15T02:20:17;40.67;;;15.00;;
45344;SDS011;31078;48.304;11.896;2023-02-15T02:26:01;28.00;;;14.75;;
45344;SDS011;31078;48.304;11.896;2023-02-15T02:28:52;30.75;;;13.05;;
45344;SDS011;31078;48.304;11.896;2023-02-15T02:31:43;41.95;;;14.52;;
45344;SDS011;31078;48.304;11.896;2023-02-15T02:34:29;28.80;;;13.10;;
45344;SDS011;31078;48.304;11.896;2023-02-15T02:37:03;25.50;;;12.77;;
45344;SDS011;31078;48.304;11.896;2023-02-15T02:39:40;26.25;;;13.10;;
45344;SDS011;31078;48.304;11.896;2023-02-15T02:42:16;74.03;;;14.98;;
45344;SDS011;31078;48.304;11.896;2023-02-15T02:44:46;35.28;;;12.80;;
45344;SDS011;31078;48.304;11.896;2023-02-15T02:47:18;31.80;;;12.75;;
45344;SDS011;31078;48.304;11.896;2023-02-15T02:49:57;23.65;;;12.98;;
45344;SDS011;31078;48.304;11.896;2023-02-15T02:52:36;36.65;;;13.70;;
45344;SDS011;31078;48.304;11.896;2023-02-15T02:55:05;27.33;;;13.52;;
45344;SDS011;31078;48.304;11.896;2023-02-15T02:57:35;28.13;;;13.82;;
45344;SDS011;31078;48.304;11.896;2023-02-15T03:00:06;26.60;;;14.02;;
45344;SDS011;31078;48.304;11.896;2023-02-15T03:02:35;26.58;;;13.30;;
45344;SDS011;31078;48.304;11.896;2023-02-15T03:05:08;68.47;;;15.05;;
45344;SDS011;31078;48.304;11.896;2023-02-15T03:07:39;32.15;;;13.85;;
45344;SDS011;31078;48.304;11.896;2023-02-15T03:10:08;25.38;;;13.55;;
45344;SDS011;31078;48.304;11.896;2023-02-15T03:12:36;74.72;;;14.45;;
45344;SDS011;31078;48.304;11.896;2023-02-15T03:15:06;26.85;;;13.48;;
45344;SDS011;31078;48.304;11.896;2023-02-15T03:17:37;25.15;;;12.25;;
45344;SDS011;31078;48.304;11.896;2023-02-15T03:20:11;22.90;;;12.32;;
45344;SDS011;31078;48.304;11.896;2023-02-15T03:22:42;24.88;;;12.77;;
45344;SDS011;31078;48.304;11.896;2023-02-15T03:25:14;51.35;;;14.20;;
45344;SDS011;31078;48.304;11.896;2023-02-15T03:27:46;27.52;;;13.38;;
45344;SDS011;31078;48.304;11.896;2023-02-15T03:30:16;27.58;;;12.65;;
45344;SDS011;31078;48.304;11.896;2023-02-15T03:32:47;26.77;;;13.57;;
45344;SDS011;31078;48.304;11.896;2023-02-15T03:35:17;26.85;;;13.40;;
45344;SDS011;31078;48.304;11.896;2023-02-15T03:37:47;27.58;;;14.35;;
45344;SDS011;31078;48.304;11.896;2023-02-15T03:40:18;43.53;;;14.05;;
45344;SDS011;31078;48.304;11.896;2023-02-15T03:43:07;32.60;;;14.13;;
45344;SDS011;31078;48.304;11.896;2023-02-15T03:48:19;22.85;;;12.27;;
45344;SDS011;31078;48.304;11.896;2023-02-15T03:50:49;25.52;;;12.45;;
45344;SDS011;31078;48.304;11.896;2023-02-15T03:53:36;25.65;;;12.65;;
45344;SDS011;31078;48.304;11.896;2023-02-15T03:56:06;26.60;;;13.15;;
45344;SDS011;31078;48.304;11.896;2023-02-15T03:58:32;26.05;;;12.85;;
45344;SDS011;31078;48.304;11.896;2023-02-15T04:01:18;67.82;;;13.88;;
45344;SDS011;31078;48.304;11.896;2023-02-15T04:04:25;56.03;;;14.85;;
45344;SDS011;31078;48.304;11.896;2023-02-15T04:06:55;64.18;;;14.85;;
45344;SDS011;31078;48.304;11.896;2023-02-15T04:09:22;47.83;;;15.07;;
45344;SDS011;31078;48.304;11.896;2023-02-15T04:12:06;50.30;;;15.05;;
45344;SDS011;31078;48.304;11.896;2023-02-15T04:14:33;52.08;;;14.75;;
45344;SDS011;31078;48.304;11.896;2023-02-15T04:17:17;32.92;;;15.05;;
45344;SDS011;31078;48.304;11.896;2023-02-15T04:19:44;45.78;;;15.18;;
45344;SDS011;31078;48.304;11.896;2023-02-15T04:22:29;45.25;;;16.13;;
45344;SDS011;31078;48.304;11.896;2023-02-15T04:25:13;31.92;;;14.32;;
45344;SDS011;31078;48.304;11.896;2023-02-15T04:27:42;70.78;;;16.58;;
45344;SDS011;31078;48.304;11.896;2023-02-15T04:30:10;33.45;;;14.85;;
45344;SDS011;31078;48.304;11.896;2023-02-15T04:32:38;26.73;;;13.18;;
45344;SDS011;31078;48.304;11.896;2023-02-15T04:35:05;29.08;;;14.55;;
45344;SDS011;31078;48.304;11.896;2023-02-15T04:37:34;33.55;;;16.25;;
45344;SDS011;31078;48.304;11.896;2023-02-15T04:40:01;30.45;;;14.25;;
45344;SDS011;31078;48.304;11.896;2023-02-15T04:42:28;30.17;;;14.60;;
45344;SDS011;31078;48.304;11.896;2023-02-15T04:44:54;33.08;;;14.20;;
45344;SDS011;31078;48.304;11.896;2023-02-15T04:47:21;35.30;;;14.20;;
45344;SDS011;31078;48.304;11.896;2023-02-15T04:49:47;44.20;;;14.65;;
45344;SDS011;31078;48.304;11.896;2023-02-15T04:52:14;34.03;;;14.65;;
45344;SDS011;31078;48.304;11.896;2023-02-15T04:54:43;27.40;;;13.57;;
45344;SDS011;31078;48.304;11.896;2023-02-15T04:57:10;24.35;;;13.05;;
45344;SDS011;31078;48.304;11.896;2023-02-15T04:59:36;27.75;;;14.05;;
45344;SDS011;31078;48.304;11.896;2023-02-15T05:02:03;32.45;;;15.45;;
45344;SDS011;31078;48.304;11.896;2023-02-15T05:04:29;35.63;;;12.50;;
45344;SDS011;31078;48.304;11.896;2023-02-15T05:06:56;28.95;;;13.85;;
45344;SDS011;31078;48.304;11.896;2023-02-15T05:09:23;27.52;;;13.10;;
45344;SDS011;31078;48.304;11.896;2023-02-15T05:11:50;22.85;;;12.02;;
45344;SDS011;31078;48.304;11.896;2023-02-15T05:14:17;25.90;;;13.52;;
45344;SDS011;31078;48.304;11.896;2023-02-15T05:16:44;26.70;;;13.45;;
45344;SDS011;31078;48.304;11.896;2023-02-15T05:19:10;25.65;;;12.57;;
45344;SDS011;31078;48.304;11.896;2023-02-15T05:21:37;27.80;;;12.98;;
45344;SDS011;31078;48.304;11.896;2023-02-15T05:24:03;24.83;;;11.77;;
45344;SDS011;31078;48.304;11.896;2023-02-15T05:26:51;25.48;;;12.95;;
45344;SDS011;31078;48.304;11.896;2023-02-15T05:29:35;27.40;;;13.27;;
45344;SDS011;31078;48.304;11.896;2023-02-15T05:32:02;24.10;;;12.07;;
45344;SDS011;31078;48.304;11.896;2023-02-15T05:34:29;26.52;;;12.77;;
45344;SDS011;31078;48.304;11.896;2023-02-15T05:36:56;31.08;;;14.30;;
45344;SDS011;31078;48.304;11.896;2023-02-15T05:39:22;25.88;;;12.52;;
45344;SDS011;31078;48.304;11.896;2023-02-15T05:41:49;29.00;;;13.82;;
45344;SDS011;31078;48.304;11.896;2023-02-15T05:44:16;25.70;;;13.25;;
45344;SDS011;31078;48.304;11.896;2023-02-15T05:46:43;27.27;;;13.00;;
45344;SDS011;31078;48.304;11.896;2023-02-15T05:49:09;28.73;;;13.25;;
45344;SDS011;31078;48.304;11.896;2023-02-15T05:51:36;24.00;;;12.43;;
45344;SDS011;31078;48.304;11.896;2023-02-15T05:54:02;25.48;;;12.85;;
45344;SDS011;31078;48.304;11.896;2023-02-15T05:56:29;28.15;;;12.27;;
45344;SDS011;31078;48.304;11.896;2023-02-15T05:58:56;27.85;;;13.80;;
45344;SDS011;31078;48.304;11.896;2023-02-15T06:01:23;23.55;;;12.77;;
45344;SDS011;31078;48.304;11.896;2023-02-15T06:03:50;30.70;;;12.02;;
45344;SDS011;31078;48.304;11.896;2023-02-15T06:06:17;25.63;;;12.70;;
45344;SDS011;31078;48.304;11.896;2023-02-15T06:08:43;25.02;;;13.00;;
45344;SDS011;31078;48.304;11.896;2023-02-15T06:11:10;25.58;;;13.05;;
45344;SDS011;31078;48.304;11.896;2023-02-15T06:13:36;23.35;;;11.75;;
45344;SDS011;31078;48.304;11.896;2023-02-15T06:16:03;26.45;;;12.85;;
45344;SDS011;31078;48.304;11.896;2023-02-15T06:18:31;25.65;;;12.57;;
45344;SDS011;31078;48.304;11.896;2023-02-15T06:20:57;24.15;;;12.05;;
45344;SDS011;31078;48.304;11.896;2023-02-15T06:23:24;24.58;;;12.40;;
45344;SDS011;31078;48.304;11.896;2023-02-15T06:25:50;24.27;;;12.40;;
45344;SDS011;31078;48.304;11.896;2023-02-15T06:28:17;26.65;;;11.90;;
45344;SDS011;31078;48.304;11.896;2023-02-15T06:30:43;30.95;;;13.68;;
45344;SDS011;31078;48.304;11.896;2023-02-15T06:33:10;23.38;;;12.18;;
45344;SDS011;31078;48.304;11.896;2023-02-15T06:35:38;24.52;;;12.20;;
45344;SDS011;31078;48.304;11.896;2023-02-15T06:38:04;26.23;;;11.73;;
45344;SDS011;31078;48.304;11.896;2023-02-15T06:40:31;31.40;;;13.95;;
45344;SDS011;31078;48.304;11.896;2023-02-15T06:42:57;31.13;;;12.90;;
45344;SDS011;31078;48.304;11.896;2023-02-15T06:45:24;25.67;;;13.10;;
45344;SDS011;31078;48.304;11.896;2023-02-15T06:47:50;26.95;;;13.30;;
45344;SDS011;31078;48.304;11.896;2023-02-15T06:50:17;28.83;;;13.32;;
45344;SDS011;31078;48.304;11.896;2023-02-15T06:52:45;31.63;;;13.70;;
45344;SDS011;31078;48.304;11.896;2023-02-15T06:55:12;26.50;;;13.25;;
45344;SDS011;31078;48.304;11.896;2023-02-15T06:57:38;28.02;;;13.70;;
45344;SDS011;31078;48.304;11.896;2023-02-15T07:00:05;27.65;;;13.65;;
45344;SDS011;31078;48.304;11.896;2023-02-15T07:02:33;34.42;;;13.35;;
45344;SDS011;31078;48.304;11.896;2023-02-15T07:04:59;40.45;;;12.95;;
45344;SDS011;31078;48.304;11.896;2023-02-15T07:07:26;40.83;;;13.93;;
45344;SDS011;31078;48.304;11.896;2023-02-15T07:09:54;30.40;;;13.38;;
45344;SDS011;31078;48.304;11.896;2023-02-15T07:12:20;30.85;;;13.32;;
45344;SDS011;31078;48.304;11.896;2023-02-15T07:15:04;29.35;;;13.93;;
45344;SDS011;31078;48.304;11.896;2023-02-15T07:17:32;26.85;;;12.80;;
45344;SDS011;31078;48.304;11.896;2023-02-15T07:19:59;29.92;;;13.50;;
45344;SDS011;31078;48.304;11.896;2023-02-15T07:22:25;51.00;;;16.08;;
45344;SDS011;31078;48.304;11.896;2023-02-15T07:24:54;33.90;;;14.13;;
45344;SDS011;31078;48.304;11.896;2023-02-15T07:27:20;31.75;;;14.25;;
45344;SDS011;31078;48.304;11.896;2023-02-15T07:29:47;39.47;;;15.57;;
45344;SDS011;31078;48.304;11.896;2023-02-15T07:32:13;36.63;;;15.70;;
45344;SDS011;31078;48.304;11.896;2023-02-15T07:34:40;30.40;;;13.57;;
45344;SDS011;31078;48.304;11.896;2023-02-15T07:37:07;37.08;;;14.80;;
45344;SDS011;31078;48.304;11.896;2023-02-15T07:39:33;30.95;;;14.60;;
45344;SDS011;31078;48.304;11.896;2023-02-15T07:42:01;28.30;;;14.27;;
45344;SDS011;31078;48.304;11.896;2023-02-15T07:44:28;42.70;;;15.98;;
45344;SDS011;31078;48.304;11.896;2023-02-15T07:46:54;31.60;;;13.75;;
45344;SDS011;31078;48.304;11.896;2023-02-15T07:49:21;29.73;;;14.32;;
45344;SDS011;31078;48.304;11.896;2023-02-15T07:51:48;32.40;;;14.70;;
45344;SDS011;31078;48.304;11.896;2023-02-15T07:54:14;29.73;;;14.82;;
45344;SDS011;31078;48.304;11.896;2023-02-15T07:56:41;63.25;;;14.00;;
45344;SDS011;31078;48.304;11.896;2023-02-15T07:59:09;36.20;;;14.70;;
45344;SDS011;31078;48.304;11.896;2023-02-15T08:01:36;58.80;;;13.65;;
45344;SDS011;31078;48.304;11.896;2023-02-15T08:04:05;27.20;;;13.43;;
45344;SDS011;31078;48.304;11.896;2023-02-15T08:06:33;35.55;;;14.25;;
45344;SDS011;31078;48.304;11.896;2023-02-15T08:09:00;84.53;;;14.55;;
45344;SDS011;31078;48.304;11.896;2023-02-15T08:11:29;46.25;;;14.77;;
45344;SDS011;31078;48.304;11.896;2023-02-15T08:14:02;41.97;;;15.15;;
45344;SDS011;31078;48.304;11.896;2023-02-15T08:16:31;34.63;;;13.93;;
45344;SDS011;31078;48.304;11.896;2023-02-15T08:19:00;27.90;;;13.35;;
45344;SDS011;31078;48.304;11.896;2023-02-15T08:21:29;51.95;;;14.57;;
45344;SDS011;31078;48.304;11.896;2023-02-15T08:23:57;26.85;;;13.48;;
45344;SDS011;31078;48.304;11.896;2023-02-15T08:26:24;31.15;;;13.95;;
45344;SDS011;31078;48.304;11.896;2023-02-15T08:28:52;40.35;;;14.93;;
45344;SDS011;31078;48.304;11.896;2023-02-15T08:31:20;47.75;;;16.55;;
45344;SDS011;31078;48.304;11.896;2023-02-15T08:33:48;29.92;;;14.35;;
45344;SDS011;31078;48.304;11.896;2023-02-15T08:36:17;29.23;;;13.40;;
45344;SDS011;31078;48.304;11.896;2023-02-15T08:38:45;37.85;;;15.40;;
45344;SDS011;31078;48.304;11.896;2023-02-15T08:41:13;33.78;;;15.32;;
45344;SDS011;31078;48.304;11.896;2023-02-15T08:43:41;27.73;;;13.73;;
45344;SDS011;31078;48.304;11.896;2023-02-15T08:46:09;29.33;;;13.98;;
45344;SDS011;31078;48.304;11.896;2023-02-15T08:48:36;26.35;;;14.23;;
45344;SDS011;31078;48.304;11.896;2023-02-15T08:51:08;28.85;;;14.45;;
45344;SDS011;31078;48.304;11.896;2023-02-15T08:53:37;30.80;;;15.70;;
45344;SDS011;31078;48.304;11.896;2023-02-15T08:56:04;25.83;;;13.05;;
45344;SDS011;31078;48.304;11.896;2023-02-15T08:58:31;28.45;;;14.10;;
45344;SDS011;31078;48.304;11.896;2023-02-15T09:00:57;25.45;;;12.77;;
45344;SDS011;31078;48.304;11.896;2023-02-15T09:03:24;27.85;;;14.20;;
45344;SDS011;31078;48.304;11.896;2023-02-15T09:05:56;30.65;;;14.35;;
45344;SDS011;31078;48.304;11.896;2023-02-15T09:08:24;24.98;;;12.73;;
45344;SDS011;31078;48.304;11.896;2023-02-15T09:10:51;24.10;;;12.77;;
45344;SDS011;31078;48.304;11.896;2023-02-15T09:13:17;37.78;;;13.80;;
45344;SDS011;31078;48.304;11.896;2023-02-15T09:15:45;27.10;;;13.57;;
45344;SDS011;31078;48.304;11.896;2023-02-15T09:18:11;41.00;;;13.88;;
45344;SDS011;31078;48.304;11.896;2023-02-15T09:20:42;26.33;;;13.20;;
45344;SDS011;31078;48.304;11.896;2023-02-15T09:23:09;28.27;;;13.32;;
45344;SDS011;31078;48.304;11.896;2023-02-15T09:25:37;28.20;;;14.60;;
45344;SDS011;31078;48.304;11.896;2023-02-15T09:28:03;32.65;;;14.20;;
45344;SDS011;31078;48.304;11.896;2023-02-15T09:30:30;29.10;;;14.38;;
45344;SDS011;31078;48.304;11.896;2023-02-15T09:32:56;27.88;;;14.23;;
45344;SDS011;31078;48.304;11.896;2023-02-15T09:35:23;30.88;;;14.98;;
45344;SDS011;31078;48.304;11.896;2023-02-15T09:37:49;31.45;;;15.30;;
45344;SDS011;31078;48.304;11.896;2023-02-15T09:40:16;31.45;;;15.77;;
45344;SDS011;31078;48.304;11.896;2023-02-15T09:42:48;41.92;;;16.20;;
45344;SDS011;31078;48.304;11.896;2023-02-15T09:45:38;37.47;;;16.67;;
45344;SDS011;31078;48.304;11.896;2023-02-15T09:48:23;30.35;;;16.33;;
45344;SDS011;31078;48.304;11.896;2023-02-15T09:51:06;28.63;;;14.68;;
45344;SDS011;31078;48.304;11.896;2023-02-15T09:54:00;34.40;;;15.13;;
45344;SDS011;31078;48.304;11.896;2023-02-15T09:56:37;20.58;;;11.30;;
45344;SDS011;31078;48.304;11.896;2023-02-15T09:59:08;25.95;;;13.73;;
45344;SDS011;31078;48.304;11.896;2023-02-15T10:01:42;26.75;;;14.00;;
45344;SDS011;31078;48.304;11.896;2023-02-15T10:04:22;30.98;;;15.18;;
45344;SDS011;31078;48.304;11.896;2023-02-15T10:07:03;27.58;;;13.93;;
45344;SDS011;31078;48.304;11.896;2023-02-15T10:09:49;30.38;;;14.95;;
45344;SDS011;31078;48.304;11.896;2023-02-15T10:12:29;25.63;;;13.25;;
45344;SDS011;31078;48.304;11.896;2023-02-15T10:15:11;26.92;;;13.73;;
45344;SDS011;31078;48.304;11.896;2023-02-15T10:17:49;25.00;;;12.70;;
45344;SDS011;31078;48.304;11.896;2023-02-15T10:20:27;25.73;;;13.52;;
45344;SDS011;31078;48.304;11.896;2023-02-15T10:23:03;24.42;;;12.85;;
45344;SDS011;31078;48.304;11.896;2023-02-15T10:25:42;27.00;;;13.40;;
45344;SDS011;31078;48.304;11.896;2023-02-15T10:28:15;23.17;;;12.95;;
45344;SDS011;31078;48.304;11.896;2023-02-15T10:30:46;24.15;;;12.98;;
45344;SDS011;31078;48.304;11.896;2023-02-15T10:33:30;21.30;;;12.35;;
45344;SDS011;31078;48.304;11.896;2023-02-15T10:36:05;22.75;;;12.70;;
45344;SDS011;31078;48.304;11.896;2023-02-15T10:38:42;24.70;;;13.68;;
45344;SDS011;31078;48.304;11.896;2023-02-15T10:41:18;21.70;;;12.30;;
45344;SDS011;31078;48.304;11.896;2023-02-15T10:43:59;22.10;;;12.68;;
45344;SDS011;31078;48.304;11.896;2023-02-15T10:46:46;25.67;;;14.10;;
45344;SDS011;31078;48.304;11.896;2023-02-15T10:49:38;25.48;;;13.70;;
45344;SDS011;31078;48.304;11.896;2023-02-15T10:52:21;26.92;;;13.95;;
45344;SDS011;31078;48.304;11.896;2023-02-15T10:54:58;25.90;;;14.18;;
45344;SDS011;31078;48.304;11.896;2023-02-15T10:57:34;25.90;;;13.93;;
45344;SDS011;31078;48.304;11.896;2023-02-15T11:00:13;24.45;;;13.10;;
45344;SDS011;31078;48.304;11.896;2023-02-15T11:02:53;17.90;;;9.98;;
45344;SDS011;31078;48.304;11.896;2023-02-15T11:05:39;22.08;;;13.00;;
45344;SDS011;31078;48.304;11.896;2023-02-15T11:08:10;27.77;;;12.30;;
45344;SDS011;31078;48.304;11.896;2023-02-15T11:10:38;23.67;;;12.75;;
45344;SDS011;31078;48.304;11.896;2023-02-15T11:13:10;26.27;;;13.60;;
45344;SDS011;31078;48.304;11.896;2023-02-15T11:15:41;20.92;;;12.13;;
45344;SDS011;31078;48.304;11.896;2023-02-15T11:18:13;22.73;;;13.10;;
45344;SDS011;31078;48.304;11.896;2023-02-15T11:20:46;21.00;;;12.15;;
45344;SDS011;31078;48.304;11.896;2023-02-15T11:23:19;22.00;;;13.20;;
45344;SDS011;31078;48.304;11.896;2023-02-15T11:25:47;23.33;;;13.40;;
45344;SDS011;31078;48.304;11.896;2023-02-15T11:28:22;24.63;;;13.60;;
45344;SDS011;31078;48.304;11.896;2023-02-15T11:30:54;26.20;;;13.52;;
45344;SDS011;31078;48.304;11.896;2023-02-15T11:33:25;24.88;;;14.43;;
45344;SDS011;31078;48.304;11.896;2023-02-15T11:35:56;18.08;;;10.25;;
45344;SDS011;31078;48.304;11.896;2023-02-15T11:38:28;29.33;;;14.50;;
45344;SDS011;31078;48.304;11.896;2023-02-15T11:40:58;23.85;;;13.70;;
45344;SDS011;31078;48.304;11.896;2023-02-15T11:43:30;24.42;;;13.73;;
45344;SDS011;31078;48.304;11.896;2023-02-15T11:48:29;23.95;;;12.68;;
45344;SDS011;31078;48.304;11.896;2023-02-15T11:50:57;24.45;;;13.52;;
45344;SDS011;31078;48.304;11.896;2023-02-15T11:53:25;22.13;;;13.20;;
45344;SDS011;31078;48.304;11.896;2023-02-15T11:55:57;22.13;;;13.10;;
45344;SDS011;31078;48.304;11.896;2023-02-15T11:58:27;23.90;;;13.48;;
45344;SDS011;31078;48.304;11.896;2023-02-15T12:01:00;28.55;;;14.50;;
45344;SDS011;31078;48.304;11.896;2023-02-15T12:03:43;23.42;;;13.65;;
45344;SDS011;31078;48.304;11.896;2023-02-15T12:06:15;25.27;;;13.68;;
45344;SDS011;31078;48.304;11.896;2023-02-15T12:08:48;26.10;;;12.25;;
45344;SDS011;31078;48.304;11.896;2023-02-15T12:11:19;17.25;;;10.07;;
45344;SDS011;31078;48.304;11.896;2023-02-15T12:13:55;19.52;;;12.13;;
45344;SDS011;31078;48.304;11.896;2023-02-15T12:16:23;19.98;;;11.57;;
45344;SDS011;31078;48.304;11.896;2023-02-15T12:18:52;18.60;;;11.45;;
45344;SDS011;31078;48.304;11.896;2023-02-15T12:21:25;19.45;;;11.18;;
45344;SDS011;31078;48.304;11.896;2023-02-15T12:23:55;14.38;;;8.55;;
45344;SDS011;31078;48.304;11.896;2023-02-15T12:26:24;28.00;;;12.15;;
45344;SDS011;31078;48.304;11.896;2023-02-15T12:28:52;21.60;;;11.30;;
45344;SDS011;31078;48.304;11.896;2023-02-15T12:31:23;19.10;;;11.60;;
45344;SDS011;31078;48.304;11.896;2023-02-15T12:33:54;18.48;;;11.25;;
45344;SDS011;31078;48.304;11.896;2023-02-15T12:36:24;17.35;;;11.10;;
45344;SDS011;31078;48.304;11.896;2023-02-15T12:39:03;20.23;;;12.20;;
45344;SDS011;31078;48.304;11.896;2023-02-15T12:41:31;17.75;;;11.20;;
45344;SDS011;31078;48.304;11.896;2023-02-15T12:44:05;19.77;;;10.95;;
45344;SDS011;31078;48.304;11.896;2023-02-15T12:46:41;19.33;;;11.93;;
45344;SDS011;31078;48.304;11.896;2023-02-15T12:49:14;24.95;;;11.98;;
45344;SDS011;31078;48.304;11.896;2023-02-15T12:51:47;17.80;;;11.23;;
45344;SDS011;31078;48.304;11.896;2023-02-15T12:54:16;18.95;;;11.90;;
45344;SDS011;31078;48.304;11.896;2023-02-15T12:56:51;16.40;;;11.35;;
45344;SDS011;31078;48.304;11.896;2023-02-15T12:59:18;15.65;;;10.82;;
45344;SDS011;31078;48.304;11.896;2023-02-15T13:01:46;17.77;;;11.60;;
45344;SDS011;31078;48.304;11.896;2023-02-15T13:04:17;21.08;;;10.85;;
45344;SDS011;31078;48.304;11.896;2023-02-15T13:06:49;19.33;;;11.70;;
45344;SDS011;31078;48.304;11.896;2023-02-15T13:09:19;16.42;;;11.75;;
45344;SDS011;31078;48.304;11.896;2023-02-15T13:11:46;17.83;;;11.50;;
45344;SDS011;31078;48.304;11.896;2023-02-15T13:14:16;17.33;;;11.18;;
45344;SDS011;31078;48.304;11.896;2023-02-15T13:16:45;18.83;;;11.88;;
45344;SDS011;31078;48.304;11.896;2023-02-15T13:19:14;20.60;;;11.40;;
45344;SDS011;31078;48.304;11.896;2023-02-15T13:21:44;17.65;;;11.57;;
45344;SDS011;31078;48.304;11.896;2023-02-15T13:24:15;17.48;;;10.73;;
45344;SDS011;31078;48.304;11.896;2023-02-15T13:26:46;17.25;;;11.55;;
45344;SDS011;31078;48.304;11.896;2023-02-15T13:29:15;17.23;;;11.55;;
45344;SDS011;31078;48.304;11.896;2023-02-15T13:31:48;18.15;;;11.80;;
45344;SDS011;31078;48.304;11.896;2023-02-15T13:34:18;19.42;;;12.32;;
45344;SDS011;31078;48.304;11.896;2023-02-15T13:36:49;18.55;;;12.30;;
45344;SDS011;31078;48.304;11.896;2023-02-15T13:39:22;19.20;;;12.43;;
45344;SDS011;31078;48.304;11.896;2023-02-15T13:41:56;18.80;;;12.23;;
45344;SDS011;31078;48.304;11.896;2023-02-15T13:44:31;17.40;;;11.52;;
45344;SDS011;31078;48.304;11.896;2023-02-15T13:47:17;16.85;;;11.35;;
45344;SDS011;31078;48.304;11.896;2023-02-15T13:49:54;16.73;;;11.48;;
45344;SDS011;31078;48.304;11.896;2023-02-15T13:52:38;17.67;;;10.95;;
45344;SDS011;31078;48.304;11.896;2023-02-15T13:55:26;16.90;;;11.33;;
45344;SDS011;31078;48.304;11.896;2023-02-15T13:58:09;19.58;;;11.93;;
45344;SDS011;31078;48.304;11.896;2023-02-15T14:00:50;15.82;;;11.20;;
45344;SDS011;31078;48.304;11.896;2023-02-15T14:06:36;15.68;;;11.10;;
45344;SDS011;31078;48.304;11.896;2023-02-15T14:09:16;17.67;;;11.65;;
45344;SDS011;31078;48.304;11.896;2023-02-15T14:11:51;13.73;;;10.10;;
45344;SDS011;31078;48.304;11.896;2023-02-15T14:14:41;15.60;;;11.10;;
45344;SDS011;31078;48.304;11.896;2023-02-15T14:17:28;14.25;;;10.35;;
45344;SDS011;31078;48.304;11.896;2023-02-15T14:20:07;16.25;;;10.55;;
45344;SDS011;31078;48.304;11.896;2023-02-15T14:22:44;13.38;;;10.32;;
45344;SDS011;31078;48.304;11.896;2023-02-15T14:25:18;13.50;;;10.25;;
45344;SDS011;31078;48.304;11.896;2023-02-15T14:27:54;14.98;;;10.85;;
45344;SDS011;31078;48.304;11.896;2023-02-15T14:30:26;15.10;;;10.57;;
45344;SDS011;31078;48.304;11.896;2023-02-15T14:32:59;17.63;;;11.60;;
45344;SDS011;31078;48.304;11.896;2023-02-15T14:35:30;13.30;;;9.88;;
45344;SDS011;31078;48.304;11.896;2023-02-15T14:38:00;14.65;;;10.30;;
45344;SDS011;31078;48.304;11.896;2023-02-15T14:40:36;15.38;;;10.63;;
45344;SDS011;31078;48.304;11.896;2023-02-15T14:43:33;17.98;;;12.57;;